Estación Meteorológica Peña el Pijo (Robertgarden) [ 11/17/17 23:58:56 CET ]

Fecha Hora Presion(HPa) Temp (°C) Humedad % Rocio (°C) Viento ( m/s) Direccion Lluvia 1Hora(mm) Lluvia 24H(mm) LLuvia Total(mm)
2017-Sep-29 01:01:33 1016.200 11.9 79 8.4         1457.65
2017-Sep-29 02:01:45 1016.200 11.6 80 8.3         1457.65
2017-Sep-29 03:01:49 1016.200 10.8 82 7.8         1457.65
2017-Sep-29 04:02:08 1015.600 9.9 83 7.1         1457.65
2017-Sep-29 05:02:09 1015.300 9.0 84 6.4         1457.65
2017-Sep-29 06:01:51 1015.300 8.4 85 6.0         1457.65
2017-Sep-29 07:01:43 1015.100 7.9 86 5.7         1457.65
2017-Sep-29 08:01:52 1015.300 7.8 86 5.6         1457.65
2017-Sep-29 09:01:41 1015.500 8.6 87 6.6         1457.65
2017-Sep-29 10:01:28 1015.700 15.6 86 13.3         1457.65
2017-Sep-29 11:01:33 1015.600 21.9 57 13.0         1457.65
2017-Sep-29 12:01:34 1015.500 25.9 38 10.4         1457.65
2017-Sep-29 13:01:42 1015.100 27.4 38 11.8         1457.65
2017-Sep-29 14:01:42 1014.800 26.1 38 10.6         1457.65
2017-Sep-29 15:01:42 1014.300 27.9 36 11.3         1457.65
2017-Sep-29 16:01:52 1013.700 27.9 34 10.5         1457.65
2017-Sep-29 17:02:06 1013.300 27.2 33 9.4         1457.65
2017-Sep-29 18:01:45 1013.200 26.6 34 9.4         1457.65
2017-Sep-29 19:01:44 1013.300 23.4 39 8.6         1457.65
2017-Sep-29 20:01:46 1013.700 20.3 47 8.6         1457.65
2017-Sep-29 21:01:36 1014.200 17.9 54 8.4         1457.65
2017-Sep-29 22:01:48 1014.700 14.6 61 7.2         1457.65
2017-Sep-29 23:01:42 1015.300 13.1 66 6.9         1457.65

Temperatura Máxima:27°    Temperatura Mínima:
Presión Máxima:1016.200 Hpa    Presión Mínima:1013.200 Hpa


Volver